Terminal Aerodrome Forecast
Issued by NWS

Home | Current Version | Previous Version | Text Only | Print | Product List | Glossary Off
Versions: 1 2 3 4 5 6 7 8 9 10 11 12 13 14 15 16 17 18 19

000
FTUS43 KMPX 250520
TAFAXN
TAF
KAXN 250520Z 2506/2606 15013KT P6SM VCSH SCT008 OVC015
     FM250800 21010KT P6SM SCT020 BKN050
     FM251500 25015G23KT P6SM OVC050
     FM251800 29020G30KT P6SM VCSH OVC025
     FM260100 28016G25KT P6SM OVC050=

USA.gov is the U.S. government's official web portal to all federal, state and local government web resources and services.